Apiliotis — SYVY — position and weather

sailwx.info

Track history (hours):
 
Tides and Currents Weather Stations Pressure Air Temp Water Temp Dewpoint Dewpoint Depression Visibility Wind Speed Wind Dir Waves Ship Positions

Apiliotis

Last reported at 2017-Apr-27 11:29 UTC. Time now 2017-Apr-27 18:53 UTC.
Position N 37°07' E 025°44'.

Length 79 m; draft 4.5 m.

Type: Ship. MMSI: 240438000.

Date/timePositionNaut miles runAvg speedWind from/ knotsBaromVisibWave heightAir tempDewpointWater temp
2017-Apr-27 11:29N 37°07' E 025°44'611.7
2017-Apr-27 11:00N 37°10' E 025°38'711.5
2017-Apr-27 10:24N 37°13' E 025°31'511.6
2017-Apr-27 10:00N 37°13' E 025°25'611.6
2017-Apr-27 09:30N 37°12' E 025°18'811.5
2017-Apr-27 08:48N 37°08' E 025°09'3 8.0
2017-Apr-27 08:29N 37°05' E 025°08'0 0.0
2017-Apr-26 22:30N 37°05' E 025°09'4 6.6
2017-Apr-26 21:53N 37°09' E 025°11'410.8
2017-Apr-26 21:30N 37°10' E 025°16'5 9.6
2017-Apr-26 21:00N 37°08' E 025°21'2 3.7
2017-Apr-26 20:30N 37°06' E 025°22'0 0.1
2017-Apr-26 20:00N 37°06' E 025°22'0 0.1
2017-Apr-26 19:30N 37°06' E 025°22'1 1.2
2017-Apr-26 19:00N 37°06' E 025°22'0 0.1
2017-Apr-26 18:30N 37°06' E 025°22'0 0.0
2017-Apr-26 18:00N 37°06' E 025°22'0 0.0
2017-Apr-26 17:30N 37°06' E 025°22'0 0.0
2017-Apr-26 17:00N 37°06' E 025°22'0 0.0
2017-Apr-26 16:30N 37°06' E 025°22'0 0.0
2017-Apr-26 16:00N 37°06' E 025°22'0 0.0
2017-Apr-26 15:30N 37°06' E 025°22'1 1.3
2017-Apr-26 15:00N 37°07' E 025°21'1010.2
2017-Apr-26 14:00N 37°11' E 025°10'611.6
2017-Apr-26 13:30N 37°09' E 025°03'611.5
2017-Apr-26 13:00N 37°08' E 024°56'26 5.4
2017-Apr-26 08:14N 36°52' E 024°30'9 0.6
2017-Apr-25 17:45N 36°46' E 024°21'311.4
2017-Apr-25 17:31N 36°44' E 024°18'  
2017-Apr-21 02:22N 37°37' E 025°54'410.5
2017-Apr-21 02:00N 37°37' E 025°49'510.4
2017-Apr-21 01:30N 37°35' E 025°42'510.7
2017-Apr-21 01:00N 37°34' E 025°36'611.2
2017-Apr-21 00:30N 37°33' E 025°29'611.1
2017-Apr-21 00:00N 37°32' E 025°22'5 9.9
2017-Apr-20 23:30N 37°29' E 025°17'2 4.9
2017-Apr-20 23:00N 37°28' E 025°20'0 0.0
2017-Apr-20 22:30N 37°28' E 025°20'0 0.0
2017-Apr-20 22:00N 37°28' E 025°20'0 0.0
2017-Apr-20 21:30N 37°28' E 025°20'0 0.0
2017-Apr-20 21:00N 37°28' E 025°20'0 0.0
2017-Apr-20 20:30N 37°28' E 025°20'0 0.0
2017-Apr-20 20:00N 37°28' E 025°20'0 0.0
2017-Apr-20 19:30N 37°28' E 025°20'0 0.0
2017-Apr-20 19:00N 37°28' E 025°20'0 0.0
2017-Apr-20 18:30N 37°28' E 025°20'0 0.0
2017-Apr-20 18:00N 37°28' E 025°20'0 0.0
2017-Apr-20 17:30N 37°28' E 025°20'0 0.0
2017-Apr-20 17:00N 37°28' E 025°20'0 0.1
2017-Apr-20 16:30N 37°28' E 025°19'4 8.8
2017-Apr-20 16:01N 37°29' E 025°14'5 9.7
2017-Apr-20 15:29N 37°32' E 025°09'0 0.4
2017-Apr-20 15:00N 37°32' E 025°09'0 0.0
2017-Apr-20 14:30N 37°32' E 025°09'0 0.0
2017-Apr-20 13:30N 37°32' E 025°09'0 0.0
2017-Apr-20 13:00N 37°32' E 025°09'4 8.4
2017-Apr-20 12:30N 37°30' E 025°05'611.9
2017-Apr-20 12:00N 37°27' E 024°58'2 4.0
2017-Apr-20 11:30N 37°26' E 024°56'0 0.0
2017-Apr-20 11:00N 37°26' E 024°56'0 0.0
2017-Apr-20 10:30N 37°26' E 024°56'0 0.0
2017-Apr-20 09:59N 37°26' E 024°56'0 0.0
2017-Apr-20 09:29N 37°26' E 024°56'0 0.0
2017-Apr-20 09:00N 37°26' E 024°56'0 0.0
2017-Apr-20 08:30N 37°26' E 024°56'0 0.0
2017-Apr-20 08:00N 37°26' E 024°56'0 0.0
2017-Apr-20 07:30N 37°26' E 024°56'0 0.0
2017-Apr-20 07:00N 37°26' E 024°56'0 0.0
2017-Apr-20 06:30N 37°26' E 024°56'0 0.0
2017-Apr-20 06:00N 37°26' E 024°56'0 0.0
2017-Apr-20 05:30N 37°26' E 024°56'0 0.0
2017-Apr-20 05:00N 37°26' E 024°56'0 0.0
2017-Apr-20 04:30N 37°26' E 024°56'0 0.0
2017-Apr-20 04:00N 37°26' E 024°56'0 0.0
2017-Apr-20 03:30N 37°26' E 024°56'0 0.0
2017-Apr-20 03:00N 37°26' E 024°56'0 0.0
2017-Apr-20 02:30N 37°26' E 024°56'0 0.0
2017-Apr-20 02:00N 37°26' E 024°56'0 0.0
2017-Apr-20 01:30N 37°26' E 024°56'0 0.0
2017-Apr-20 01:00N 37°26' E 024°56'0 0.0
2017-Apr-20 00:30N 37°26' E 024°56'0 0.0
2017-Apr-20 00:00N 37°26' E 024°56'0 0.0
2017-Apr-19 23:30N 37°26' E 024°56'0 0.0
2017-Apr-19 23:00N 37°26' E 024°56'0 0.0
2017-Apr-19 22:30N 37°26' E 024°56'0 0.0
2017-Apr-19 22:00N 37°26' E 024°56'0 0.0
2017-Apr-19 21:30N 37°26' E 024°56'0 0.0
2017-Apr-19 21:00N 37°26' E 024°56'0 0.0
2017-Apr-19 20:30N 37°26' E 024°56'0 0.0
2017-Apr-19 20:00N 37°26' E 024°56'0 0.0
2017-Apr-19 19:30N 37°26' E 024°56'0 0.0
2017-Apr-19 18:55N 37°26' E 024°56'0 0.0
2017-Apr-19 18:30N 37°26' E 024°56'0 0.0
2017-Apr-19 18:00N 37°26' E 024°56'0 0.0
2017-Apr-19 17:30N 37°26' E 024°56'0 0.0
2017-Apr-19 17:00N 37°26' E 024°56'0 0.0
2017-Apr-19 16:30N 37°26' E 024°56'0 0.0
2017-Apr-19 16:00N 37°26' E 024°56'0 0.0
2017-Apr-19 15:30N 37°26' E 024°56'0 0.0
2017-Apr-19 15:00N 37°26' E 024°56'0 0.0
2017-Apr-19 14:29N 37°26' E 024°56'0 0.0
2017-Apr-19 13:30N 37°26' E 024°56'0 0.0
2017-Apr-19 13:00N 37°26' E 024°56'0 0.0
2017-Apr-19 12:30N 37°26' E 024°56'0 0.0
2017-Apr-19 12:00N 37°26' E 024°56'0 0.6
2017-Apr-19 11:29N 37°26' E 024°57'510.2
2017-Apr-19 11:00N 37°22' E 024°60'611.8
2017-Apr-19 10:30N 37°16' E 025°03'611.8
2017-Apr-19 10:00N 37°11' E 025°05'611.9
2017-Apr-19 09:30N 37°05' E 025°07'1 1.7
2017-Apr-19 08:59N 37°05' E 025°08'0 0.1
2017-Apr-19 08:29N 37°05' E 025°08'0 0.0
2017-Apr-19 08:00N 37°05' E 025°08'0 0.0
2017-Apr-19 07:30N 37°05' E 025°08'0 0.1
2017-Apr-19 07:00N 37°05' E 025°08'1 0.2
2017-Apr-19 04:06N 37°05' E 025°09'0 0.0
2017-Apr-19 02:44N 37°05' E 025°09'0 0.0
2017-Apr-19 01:46N 37°05' E 025°09'0 0.0
2017-Apr-19 01:07N 37°05' E 025°09'0 0.0
2017-Apr-18 20:47N 37°05' E 025°09'2 5.4
2017-Apr-18 20:30N 37°06' E 025°07'611.2
2017-Apr-18 20:00N 37°10' E 025°12'510.7
2017-Apr-18 19:30N 37°10' E 025°19'4 8.3
2017-Apr-18 19:00N 37°06' E 025°22'1 1.0
2017-Apr-18 18:30N 37°06' E 025°22'0 0.0
2017-Apr-18 18:00N 37°06' E 025°22'0 0.0
2017-Apr-18 17:30N 37°06' E 025°22'1 1.2
2017-Apr-18 17:00N 37°06' E 025°22'0 0.0
2017-Apr-18 16:30N 37°06' E 025°22'0 0.9
2017-Apr-18 16:00N 37°06' E 025°22'511.0
2017-Apr-18 15:30N 37°11' E 025°18'611.3
2017-Apr-18 15:00N 37°10' E 025°10'611.3
2017-Apr-18 14:30N 37°09' E 025°04'70 3.1
2017-Apr-17 15:58N 37°37' E 023°43'612.0
2017-Apr-17 15:30N 37°42' E 023°40'612.1
2017-Apr-17 15:00N 37°48' E 023°37'612.1
2017-Apr-17 14:30N 37°54' E 023°35'9 8.8
2017-Apr-17 13:30N 38°02' E 023°32'1 1.7
2017-Apr-17 13:00N 38°01' E 023°32'0 0.2
2017-Apr-17 12:30N 38°01' E 023°32'0 0.0
2017-Apr-17 12:00N 38°01' E 023°32'0 0.0
2017-Apr-17 11:30N 38°01' E 023°32'  
Track history (hours):
 
Tides and Currents Weather Stations Pressure Air Temp Water Temp Dewpoint Dewpoint Depression Visibility Wind Speed Wind Dir Waves Ship Positions

Apiliotis

Last reported at 2017-Apr-27 11:29 UTC. Time now 2017-Apr-27 18:53 UTC.
Position N 37°07' E 025°44'.

Length 79 m; draft 4.5 m.

Type: Ship. MMSI: 240438000.

Date/timePositionNaut miles runAvg speedWind from/ knotsBaromVisibWave heightAir tempDewpointWater temp
2017-Apr-27 11:29N 37°07' E 025°44'611.7
2017-Apr-27 11:00N 37°10' E 025°38'711.5
2017-Apr-27 10:24N 37°13' E 025°31'511.6
2017-Apr-27 10:00N 37°13' E 025°25'611.6
2017-Apr-27 09:30N 37°12' E 025°18'811.5
2017-Apr-27 08:48N 37°08' E 025°09'3 8.0
2017-Apr-27 08:29N 37°05' E 025°08'0 0.0
2017-Apr-26 22:30N 37°05' E 025°09'4 6.6
2017-Apr-26 21:53N 37°09' E 025°11'410.8
2017-Apr-26 21:30N 37°10' E 025°16'5 9.6
2017-Apr-26 21:00N 37°08' E 025°21'2 3.7
2017-Apr-26 20:30N 37°06' E 025°22'0 0.1
2017-Apr-26 20:00N 37°06' E 025°22'0 0.1
2017-Apr-26 19:30N 37°06' E 025°22'1 1.2
2017-Apr-26 19:00N 37°06' E 025°22'0 0.1
2017-Apr-26 18:30N 37°06' E 025°22'0 0.0
2017-Apr-26 18:00N 37°06' E 025°22'0 0.0
2017-Apr-26 17:30N 37°06' E 025°22'0 0.0
2017-Apr-26 17:00N 37°06' E 025°22'0 0.0
2017-Apr-26 16:30N 37°06' E 025°22'0 0.0
2017-Apr-26 16:00N 37°06' E 025°22'0 0.0
2017-Apr-26 15:30N 37°06' E 025°22'1 1.3
2017-Apr-26 15:00N 37°07' E 025°21'1010.2
2017-Apr-26 14:00N 37°11' E 025°10'611.6
2017-Apr-26 13:30N 37°09' E 025°03'611.5
2017-Apr-26 13:00N 37°08' E 024°56'26 5.4
2017-Apr-26 08:14N 36°52' E 024°30'9 0.6
2017-Apr-25 17:45N 36°46' E 024°21'311.4
2017-Apr-25 17:31N 36°44' E 024°18'  
2017-Apr-21 02:22N 37°37' E 025°54'410.5
2017-Apr-21 02:00N 37°37' E 025°49'510.4
2017-Apr-21 01:30N 37°35' E 025°42'510.7
2017-Apr-21 01:00N 37°34' E 025°36'611.2
2017-Apr-21 00:30N 37°33' E 025°29'611.1
2017-Apr-21 00:00N 37°32' E 025°22'5 9.9
2017-Apr-20 23:30N 37°29' E 025°17'2 4.9
2017-Apr-20 23:00N 37°28' E 025°20'0 0.0
2017-Apr-20 22:30N 37°28' E 025°20'0 0.0
2017-Apr-20 22:00N 37°28' E 025°20'0 0.0
2017-Apr-20 21:30N 37°28' E 025°20'0 0.0
2017-Apr-20 21:00N 37°28' E 025°20'0 0.0
2017-Apr-20 20:30N 37°28' E 025°20'0 0.0
2017-Apr-20 20:00N 37°28' E 025°20'0 0.0
2017-Apr-20 19:30N 37°28' E 025°20'0 0.0
2017-Apr-20 19:00N 37°28' E 025°20'0 0.0
2017-Apr-20 18:30N 37°28' E 025°20'0 0.0
2017-Apr-20 18:00N 37°28' E 025°20'0 0.0
2017-Apr-20 17:30N 37°28' E 025°20'0 0.0
2017-Apr-20 17:00N 37°28' E 025°20'0 0.1
2017-Apr-20 16:30N 37°28' E 025°19'4 8.8
2017-Apr-20 16:01N 37°29' E 025°14'5 9.7
2017-Apr-20 15:29N 37°32' E 025°09'0 0.4
2017-Apr-20 15:00N 37°32' E 025°09'0 0.0
2017-Apr-20 14:30N 37°32' E 025°09'0 0.0
2017-Apr-20 13:30N 37°32' E 025°09'0 0.0
2017-Apr-20 13:00N 37°32' E 025°09'4 8.4
2017-Apr-20 12:30N 37°30' E 025°05'611.9
2017-Apr-20 12:00N 37°27' E 024°58'2 4.0
2017-Apr-20 11:30N 37°26' E 024°56'0 0.0
2017-Apr-20 11:00N 37°26' E 024°56'0 0.0
2017-Apr-20 10:30N 37°26' E 024°56'0 0.0
2017-Apr-20 09:59N 37°26' E 024°56'0 0.0
2017-Apr-20 09:29N 37°26' E 024°56'0 0.0
2017-Apr-20 09:00N 37°26' E 024°56'0 0.0
2017-Apr-20 08:30N 37°26' E 024°56'0 0.0
2017-Apr-20 08:00N 37°26' E 024°56'0 0.0
2017-Apr-20 07:30N 37°26' E 024°56'0 0.0
2017-Apr-20 07:00N 37°26' E 024°56'0 0.0
2017-Apr-20 06:30N 37°26' E 024°56'0 0.0
2017-Apr-20 06:00N 37°26' E 024°56'0 0.0
2017-Apr-20 05:30N 37°26' E 024°56'0 0.0
2017-Apr-20 05:00N 37°26' E 024°56'0 0.0
2017-Apr-20 04:30N 37°26' E 024°56'0 0.0
2017-Apr-20 04:00N 37°26' E 024°56'0 0.0
2017-Apr-20 03:30N 37°26' E 024°56'0 0.0
2017-Apr-20 03:00N 37°26' E 024°56'0 0.0
2017-Apr-20 02:30N 37°26' E 024°56'0 0.0
2017-Apr-20 02:00N 37°26' E 024°56'0 0.0
2017-Apr-20 01:30N 37°26' E 024°56'0 0.0
2017-Apr-20 01:00N 37°26' E 024°56'0 0.0
2017-Apr-20 00:30N 37°26' E 024°56'0 0.0
2017-Apr-20 00:00N 37°26' E 024°56'0 0.0
2017-Apr-19 23:30N 37°26' E 024°56'0 0.0
2017-Apr-19 23:00N 37°26' E 024°56'0 0.0
2017-Apr-19 22:30N 37°26' E 024°56'0 0.0
2017-Apr-19 22:00N 37°26' E 024°56'0 0.0
2017-Apr-19 21:30N 37°26' E 024°56'0 0.0
2017-Apr-19 21:00N 37°26' E 024°56'0 0.0
2017-Apr-19 20:30N 37°26' E 024°56'0 0.0
2017-Apr-19 20:00N 37°26' E 024°56'0 0.0
2017-Apr-19 19:30N 37°26' E 024°56'0 0.0
2017-Apr-19 18:55N 37°26' E 024°56'0 0.0
2017-Apr-19 18:30N 37°26' E 024°56'0 0.0
2017-Apr-19 18:00N 37°26' E 024°56'0 0.0
2017-Apr-19 17:30N 37°26' E 024°56'0 0.0
2017-Apr-19 17:00N 37°26' E 024°56'0 0.0
2017-Apr-19 16:30N 37°26' E 024°56'0 0.0
2017-Apr-19 16:00N 37°26' E 024°56'0 0.0
2017-Apr-19 15:30N 37°26' E 024°56'0 0.0
2017-Apr-19 15:00N 37°26' E 024°56'0 0.0
2017-Apr-19 14:29N 37°26' E 024°56'0 0.0
2017-Apr-19 13:30N 37°26' E 024°56'0 0.0
2017-Apr-19 13:00N 37°26' E 024°56'0 0.0
2017-Apr-19 12:30N 37°26' E 024°56'0 0.0
2017-Apr-19 12:00N 37°26' E 024°56'0 0.6
2017-Apr-19 11:29N 37°26' E 024°57'510.2
2017-Apr-19 11:00N 37°22' E 024°60'611.8
2017-Apr-19 10:30N 37°16' E 025°03'611.8
2017-Apr-19 10:00N 37°11' E 025°05'611.9
2017-Apr-19 09:30N 37°05' E 025°07'1 1.7
2017-Apr-19 08:59N 37°05' E 025°08'0 0.1
2017-Apr-19 08:29N 37°05' E 025°08'0 0.0
2017-Apr-19 08:00N 37°05' E 025°08'0 0.0
2017-Apr-19 07:30N 37°05' E 025°08'0 0.1
2017-Apr-19 07:00N 37°05' E 025°08'1 0.2
2017-Apr-19 04:06N 37°05' E 025°09'0 0.0
2017-Apr-19 02:44N 37°05' E 025°09'0 0.0
2017-Apr-19 01:46N 37°05' E 025°09'0 0.0
2017-Apr-19 01:07N 37°05' E 025°09'0 0.0
2017-Apr-18 20:47N 37°05' E 025°09'2 5.4
2017-Apr-18 20:30N 37°06' E 025°07'611.2
2017-Apr-18 20:00N 37°10' E 025°12'510.7
2017-Apr-18 19:30N 37°10' E 025°19'4 8.3
2017-Apr-18 19:00N 37°06' E 025°22'1 1.0
2017-Apr-18 18:30N 37°06' E 025°22'0 0.0
2017-Apr-18 18:00N 37°06' E 025°22'0 0.0
2017-Apr-18 17:30N 37°06' E 025°22'1 1.2
2017-Apr-18 17:00N 37°06' E 025°22'0 0.0
2017-Apr-18 16:30N 37°06' E 025°22'0 0.9
2017-Apr-18 16:00N 37°06' E 025°22'511.0
2017-Apr-18 15:30N 37°11' E 025°18'611.3
2017-Apr-18 15:00N 37°10' E 025°10'611.3
2017-Apr-18 14:30N 37°09' E 025°04'70 3.1
2017-Apr-17 15:58N 37°37' E 023°43'612.0
2017-Apr-17 15:30N 37°42' E 023°40'612.1
2017-Apr-17 15:00N 37°48' E 023°37'612.1
2017-Apr-17 14:30N 37°54' E 023°35'9 8.8
2017-Apr-17 13:30N 38°02' E 023°32'1 1.7
2017-Apr-17 13:00N 38°01' E 023°32'0 0.2
2017-Apr-17 12:30N 38°01' E 023°32'0 0.0
2017-Apr-17 12:00N 38°01' E 023°32'0 0.0
2017-Apr-17 11:30N 38°01' E 023°32'  

Dump ship's entire track history